Time;durP1;ratioP1;P1;durP2;ratioP2;P2;SDS_P1;SDS_P2;PMS_P1;PMS_P2;Temp;Humidity;BMP_temperature;BMP_pressure;BME280_temperature;BME280_humidity;BME280_pressure;Samples;Min_cycle;Max_cycle;Signal;HPM_P1;HPM_P2
2023/09/07 00:01:22;;;;;;;0.83;0.50;;;;;;;20.86;100.00;95691.72;5066838;28;20455;-60
2023/09/07 00:03:51;;;;;;;1.13;0.83;;;;;;;20.89;100.00;95689.16;5073056;28;20473;-63
2023/09/07 00:06:20;;;;;;;1.70;1.60;;;;;;;20.69;100.00;95684.50;5072550;28;20441;-60
2023/09/07 00:08:49;;;;;;;5.13;0.87;;;;;;;20.57;100.00;95651.25;5072931;28;20433;-60
2023/09/07 00:11:17;;;;;;;0.70;0.43;;;;;;;21.04;100.00;95685.13;5072605;28;20441;-62
2023/09/07 00:13:46;;;;;;;1.50;1.23;;;;;;;20.79;100.00;95683.34;5072952;28;20515;-62
2023/09/07 00:16:14;;;;;;;1.00;0.77;;;;;;;20.73;100.00;95687.34;5072979;28;21254;-60
2023/09/07 00:18:43;;;;;;;1.73;1.63;;;;;;;20.59;100.00;95692.91;5072585;28;20444;-60
2023/09/07 00:21:11;;;;;;;0.60;0.53;;;;;;;21.02;100.00;95695.44;5071635;28;20437;-59
2023/09/07 00:23:42;;;;;;;0.70;0.63;;;;;;;21.04;100.00;95695.91;5072725;28;20992;-59
2023/09/07 00:26:12;;;;;;;0.80;0.80;;;;;;;20.96;100.00;95660.91;5071777;28;20503;-60
2023/09/07 00:28:40;;;;;;;3.53;0.67;;;;;;;20.45;100.00;95619.66;5072287;28;20537;-60
2023/09/07 00:31:09;;;;;;;1.20;1.10;;;;;;;20.49;100.00;95644.03;5072413;28;20521;-60
2023/09/07 00:33:37;;;;;;;1.83;1.73;;;;;;;20.43;100.00;95674.94;5072360;28;20433;-61
2023/09/07 00:36:06;;;;;;;1.60;1.50;;;;;;;19.88;100.00;95638.03;5071788;28;20528;-60
2023/09/07 00:38:34;;;;;;;1.70;1.60;;;;;;;20.26;100.00;95694.66;5072125;28;20498;-59
2023/09/07 00:41:04;;;;;;;1.70;1.60;;;;;;;20.17;100.00;95683.06;5046315;28;20464;-60
2023/09/07 00:43:32;;;;;;;2.23;2.07;;;;;;;20.11;100.00;95677.06;5072326;28;21038;-60
2023/09/07 00:46:01;;;;;;;2.60;1.93;;;;;;;20.03;100.00;95677.09;5071621;28;20441;-60
2023/09/07 00:48:29;;;;;;;1.30;1.10;;;;;;;19.97;100.00;95675.66;5071599;28;20441;-60
2023/09/07 00:50:58;;;;;;;2.43;1.70;;;;;;;20.11;100.00;95668.97;5071600;28;20477;-61
2023/09/07 00:53:27;;;;;;;1.30;1.20;;;;;;;20.05;100.00;95667.59;5071463;28;20444;-60
2023/09/07 00:55:57;;;;;;;1.63;1.50;;;;;;;19.32;100.00;95552.19;5070574;28;20444;-59
2023/09/07 00:58:27;;;;;;;1.47;1.37;;;;;;;20.00;100.00;95650.81;5071909;28;20468;-60
2023/09/07 01:00:56;;;;;;;1.40;1.30;;;;;;;20.09;100.00;95665.81;5071765;28;20529;-59
2023/09/07 01:03:24;;;;;;;1.63;1.53;;;;;;;20.10;100.00;95666.63;5072194;28;20479;-60
2023/09/07 01:05:57;;;;;;;1.60;1.50;;;;;;;19.95;100.00;95616.00;5072051;28;20483;-60
2023/09/07 01:08:30;;;;;;;1.87;1.77;;;;;;;20.10;100.00;95667.41;5072214;28;20499;-61
2023/09/07 01:10:58;;;;;;;4.50;1.80;;;;;;;20.26;100.00;95663.09;5071429;28;21024;-60
2023/09/07 01:13:28;;;;;;;1.33;1.23;;;;;;;20.32;100.00;95673.69;5072089;28;20434;-60
2023/09/07 01:15:56;;;;;;;1.80;1.47;;;;;;;20.21;100.00;95657.88;5070174;28;20452;-60
2023/09/07 01:18:25;;;;;;;1.97;1.87;;;;;;;19.11;100.00;95505.59;5071692;28;20446;-60
2023/09/07 01:20:55;;;;;;;1.40;1.30;;;;;;;20.11;100.00;95652.84;5071903;28;20836;-60
2023/09/07 01:23:25;;;;;;;1.37;1.27;;;;;;;20.34;100.00;95663.41;5071524;28;20449;-60
2023/09/07 01:25:54;;;;;;;1.20;1.20;;;;;;;19.96;100.00;95621.06;5071815;28;20451;-60
2023/09/07 01:28:23;;;;;;;1.03;0.97;;;;;;;20.41;100.00;95659.13;5071986;28;20953;-60
2023/09/07 01:30:53;;;;;;;2.03;0.87;;;;;;;20.58;100.00;95660.94;5070340;28;20441;-60
2023/09/07 01:33:21;;;;;;;1.20;1.10;;;;;;;20.62;100.00;95616.06;5071915;28;20518;-60
2023/09/07 01:35:50;;;;;;;0.70;0.70;;;;;;;21.15;100.00;95659.38;5071853;28;20526;-60
2023/09/07 01:38:18;;;;;;;0.60;0.50;;;;;;;21.22;100.00;95662.34;5071375;28;20445;-60
2023/09/07 01:40:48;;;;;;;0.50;0.47;;;;;;;21.31;100.00;95664.97;5071186;28;20510;-60
2023/09/07 01:43:16;;;;;;;0.50;0.30;;;;;;;21.25;100.00;95664.38;5071352;28;20855;-61
2023/09/07 01:45:44;;;;;;;1.10;1.00;;;;;;;21.14;100.00;95663.19;5071111;28;20469;-60
2023/09/07 01:48:15;;;;;;;0.93;0.93;;;;;;;21.20;100.00;95661.88;5071448;28;20498;-61
2023/09/07 01:50:43;;;;;;;0.50;0.33;;;;;;;21.39;100.00;95664.91;5070887;28;20534;-61
2023/09/07 01:53:12;;;;;;;0.70;0.50;;;;;;;21.18;100.00;95655.22;5071576;28;20445;-61
2023/09/07 01:55:40;;;;;;;0.70;0.60;;;;;;;21.01;100.00;95658.81;5057925;28;21006;-60
2023/09/07 01:58:10;;;;;;;0.70;0.60;;;;;;;21.19;100.00;95660.31;5071113;28;20874;-60
2023/09/07 02:00:39;;;;;;;0.60;0.40;;;;;;;21.31;100.00;95654.97;5071755;28;20487;-61
2023/09/07 02:03:08;;;;;;;0.70;0.60;;;;;;;21.38;100.00;95655.25;5071164;28;20480;-60
2023/09/07 02:05:36;;;;;;;3.13;1.07;;;;;;;21.17;100.00;95659.84;5070934;28;20473;-60
2023/09/07 02:08:05;;;;;;;0.50;0.40;;;;;;;21.16;100.00;95655.56;5071013;28;20461;-60
2023/09/07 02:10:34;;;;;;;0.80;0.53;;;;;;;21.30;100.00;95647.25;5070963;28;20502;-61
2023/09/07 02:13:03;;;;;;;2.47;0.60;;;;;;;21.11;100.00;95647.69;5071075;28;20937;-61
2023/09/07 02:15:34;;;;;;;1.83;1.10;;;;;;;20.69;100.00;95651.38;5071158;28;20841;-61
2023/09/07 02:18:03;;;;;;;1.17;1.07;;;;;;;20.87;100.00;95660.97;5070950;28;21009;-60
2023/09/07 02:20:32;;;;;;;0.87;0.70;;;;;;;21.01;100.00;95658.81;5071087;28;20444;-60
2023/09/07 02:23:00;;;;;;;0.70;0.70;;;;;;;21.21;100.00;95668.84;5070544;28;20437;-61
2023/09/07 02:25:30;;;;;;;0.77;0.77;;;;;;;21.32;100.00;95659.28;5070640;28;20481;-60
2023/09/07 02:27:58;;;;;;;0.77;0.60;;;;;;;21.34;100.00;95665.13;5056861;28;20953;-60
2023/09/07 02:30:26;;;;;;;0.73;0.73;;;;;;;21.15;100.00;95675.53;5070800;28;20499;-61
2023/09/07 02:32:57;;;;;;;1.20;1.10;;;;;;;21.27;100.00;95662.16;5071056;28;20484;-60
2023/09/07 02:35:25;;;;;;;1.27;1.17;;;;;;;21.34;100.00;95673.22;5070762;28;20437;-59
2023/09/07 02:37:54;;;;;;;0.53;0.50;;;;;;;21.35;100.00;95655.91;5070657;28;20464;-60
2023/09/07 02:40:22;;;;;;;0.50;0.50;;;;;;;21.27;100.00;95650.59;5070424;28;20445;-60
2023/09/07 02:42:50;;;;;;;6.93;0.50;;;;;;;21.25;100.00;95658.22;5072669;28;20445;-61
2023/09/07 02:45:19;;;;;;;1.77;0.93;;;;;;;21.00;100.00;95645.69;5074401;28;21002;-60
2023/09/07 02:47:50;;;;;;;0.50;0.40;;;;;;;21.25;100.00;95658.22;5074434;28;20498;-61
2023/09/07 02:51:09;;;;;;;0.50;0.50;;;;;;;20.87;100.00;95624.00;5074233;28;20475;-60
2023/09/07 02:53:39;;;;;;;1.53;0.93;;;;;;;20.41;100.00;95655.63;5019856;28;21097;-60
2023/09/07 02:56:10;;;;;;;1.87;0.80;;;;;;;20.22;100.00;95658.66;5031936;28;20897;-60
2023/09/07 02:58:39;;;;;;;1.57;1.50;;;;;;;19.98;100.00;95661.13;5052541;28;20441;-60
2023/09/07 03:01:09;;;;;;;1.53;1.43;;;;;;;19.86;100.00;95661.75;5074670;28;20453;-59
2023/09/07 03:03:41;;;;;;;3.90;1.90;;;;;;;19.84;100.00;95634.38;5074041;28;20499;-60
2023/09/07 03:06:10;;;;;;;0.80;0.80;;;;;;;19.76;100.00;95623.66;5074191;28;21032;-60
2023/09/07 03:08:40;;;;;;;1.10;1.10;;;;;;;19.89;100.00;95653.03;5073887;28;20486;-60
2023/09/07 03:11:10;;;;;;;0.87;0.87;;;;;;;20.00;100.00;95661.56;5073483;28;20461;-59
2023/09/07 03:13:39;;;;;;;1.10;1.10;;;;;;;20.25;100.00;95668.81;5066687;28;20442;-61
2023/09/07 03:16:08;;;;;;;1.23;0.60;;;;;;;20.56;100.00;95674.75;5068350;28;20922;-60
2023/09/07 03:18:36;;;;;;;0.60;0.60;;;;;;;20.51;100.00;95677.59;5074027;28;20484;-60
2023/09/07 03:21:05;;;;;;;0.50;0.37;;;;;;;20.61;100.00;95674.56;5074343;28;20432;-60
2023/09/07 03:24:08;;;;;;;0.70;0.70;;;;;;;20.66;100.00;95663.59;5073710;28;20449;-60
2023/09/07 03:26:36;;;;;;;0.67;0.43;;;;;;;20.39;100.00;95623.63;5031214;28;20515;-61
2023/09/07 03:29:05;;;;;;;5.03;0.80;;;;;;;20.66;100.00;95677.06;5065307;28;20852;-60
2023/09/07 03:31:33;;;;;;;0.50;0.50;;;;;;;20.56;100.00;95644.31;5074053;28;20990;-60
2023/09/07 03:34:02;;;;;;;0.87;0.63;;;;;;;20.62;100.00;95669.94;5073470;28;20442;-60
2023/09/07 03:36:30;;;;;;;0.70;0.60;;;;;;;20.55;100.00;95669.66;5073431;28;20472;-60
2023/09/07 03:38:58;;;;;;;0.83;0.80;;;;;;;20.43;100.00;95669.56;5073406;28;20441;-60
2023/09/07 03:41:30;;;;;;;0.60;0.60;;;;;;;20.22;100.00;95667.53;5073972;28;20437;-59
2023/09/07 03:43:59;;;;;;;0.83;0.63;;;;;;;19.73;100.00;95597.41;5073350;28;20513;-59
2023/09/07 03:46:27;;;;;;;2.10;0.87;;;;;;;19.90;100.00;95591.97;5073354;28;20495;-60
2023/09/07 03:48:56;;;;;;;1.10;0.80;;;;;;;20.45;100.00;95678.88;5072589;28;20506;-60
2023/09/07 03:51:24;;;;;;;1.07;1.00;;;;;;;20.25;100.00;95669.63;5072697;28;20445;-60
2023/09/07 03:53:53;;;;;;;1.40;1.30;;;;;;;20.25;100.00;95682.28;5072045;28;20445;-60
2023/09/07 03:56:21;;;;;;;2.13;1.20;;;;;;;20.34;100.00;95668.81;5072454;28;20441;-59
2023/09/07 03:58:51;;;;;;;1.20;0.57;;;;;;;20.61;100.00;95681.84;5047015;28;20487;-60
2023/09/07 04:01:19;;;;;;;0.60;0.50;;;;;;;20.83;100.00;95685.06;5072892;28;20494;-60
2023/09/07 04:03:48;;;;;;;0.90;0.90;;;;;;;20.90;100.00;95684.53;5073035;28;20449;-60
2023/09/07 04:06:16;;;;;;;0.80;0.70;;;;;;;20.15;100.00;95636.84;5071907;28;20985;-60
2023/09/07 04:08:44;;;;;;;1.20;1.00;;;;;;;20.68;100.00;95684.81;5073002;28;21011;-60
2023/09/07 04:11:13;;;;;;;1.60;1.50;;;;;;;20.41;99.20;95639.47;5072521;28;20440;-60
2023/09/07 04:13:41;;;;;;;1.10;1.10;;;;;;;20.56;98.18;95682.81;5072994;28;20478;-60
2023/09/07 04:16:11;;;;;;;2.93;0.90;;;;;;;20.61;97.98;95685.34;5072039;28;20488;-60
2023/09/07 04:18:39;;;;;;;0.50;0.50;;;;;;;20.61;96.96;95696.09;5072694;28;20444;-60
2023/09/07 04:21:08;;;;;;;1.13;1.10;;;;;;;20.59;95.39;95686.78;5072607;28;20445;-60
2023/09/07 04:23:38;;;;;;;1.20;1.10;;;;;;;20.78;91.98;95689.84;5072579;28;20441;-60
2023/09/07 04:26:11;;;;;;;1.40;1.30;;;;;;;20.58;93.66;95667.13;5072298;28;20561;-61
2023/09/07 04:28:39;;;;;;;0.73;0.73;;;;;;;20.89;92.03;95697.25;5072003;28;20494;-60
2023/09/07 04:31:08;;;;;;;1.57;0.77;;;;;;;21.03;92.57;95696.19;5072522;28;20886;-60
2023/09/07 04:33:37;;;;;;;1.50;1.00;;;;;;;21.00;91.46;95699.56;5072587;28;20433;-61
2023/09/07 04:36:10;;;;;;;2.80;1.73;;;;;;;20.99;91.05;95698.78;5072442;28;20446;-62
2023/09/07 04:38:38;;;;;;;1.43;1.33;;;;;;;20.91;89.48;95696.91;5072092;28;20506;-60
2023/09/07 04:41:08;;;;;;;1.80;0.90;;;;;;;20.87;88.98;95702.16;5071570;28;20448;-61
2023/09/07 04:43:37;;;;;;;0.93;0.90;;;;;;;21.00;88.17;95700.34;5072439;28;20446;-60
2023/09/07 04:46:05;;;;;;;0.87;0.70;;;;;;;20.96;86.90;95712.91;5072275;28;20972;-60
2023/09/07 04:48:34;;;;;;;1.17;1.07;;;;;;;20.92;86.25;95703.91;5072535;28;20897;-60
2023/09/07 04:51:06;;;;;;;0.77;0.77;;;;;;;20.85;86.59;95695.50;5071932;28;20977;-59
2023/09/07 04:53:36;;;;;;;1.47;0.87;;;;;;;20.98;83.89;95702.56;5072390;28;20445;-61
2023/09/07 04:56:09;;;;;;;1.33;1.23;;;;;;;21.01;85.29;95698.44;5072128;28;20444;-59
2023/09/07 04:58:37;;;;;;;4.30;1.60;;;;;;;20.87;83.95;95672.50;5071566;28;20528;-59
2023/09/07 05:01:06;;;;;;;0.70;0.70;;;;;;;21.12;82.26;95691.59;5072124;28;20440;-61
2023/09/07 05:03:35;;;;;;;2.10;0.40;;;;;;;21.27;81.05;95705.31;5072056;28;20449;-60
2023/09/07 05:06:05;;;;;;;0.80;0.73;;;;;;;21.22;81.59;95697.41;5071219;28;20473;-59
2023/09/07 05:08:34;;;;;;;0.90;0.90;;;;;;;21.24;79.69;95705.94;5046490;28;20950;-55
2023/09/07 05:11:04;;;;;;;2.20;0.93;;;;;;;21.35;79.21;95711.75;5071802;28;20446;-55
2023/09/07 05:13:32;;;;;;;0.57;0.40;;;;;;;21.50;77.85;95711.94;5072209;28;20437;-55
2023/09/07 05:16:01;;;;;;;2.40;0.40;;;;;;;21.50;75.97;95717.34;5071900;28;20526;-55
2023/09/07 05:18:30;;;;;;;0.60;0.43;;;;;;;21.61;74.72;95715.03;5071920;28;20437;-55
2023/09/07 05:20:59;;;;;;;0.83;0.83;;;;;;;21.78;76.16;95714.91;5071950;28;20916;-56
2023/09/07 05:23:28;;;;;;;0.80;0.50;;;;;;;21.80;74.78;95715.38;5071509;28;20930;-55
2023/09/07 05:25:57;;;;;;;1.13;0.60;;;;;;;21.84;73.60;95707.41;5070925;28;20473;-56
2023/09/07 05:28:25;;;;;;;0.97;0.97;;;;;;;21.29;74.12;95680.69;5070924;28;20448;-55
2023/09/07 05:30:53;;;;;;;0.60;0.50;;;;;;;21.95;74.16;95714.00;5071499;28;20506;-56
2023/09/07 05:33:21;;;;;;;1.23;0.70;;;;;;;21.88;72.93;95717.22;5071949;28;20853;-56
2023/09/07 05:35:50;;;;;;;6.77;0.73;;;;;;;21.92;71.11;95715.47;5070692;28;20465;-55
2023/09/07 05:38:18;;;;;;;0.57;0.43;;;;;;;21.93;72.52;95719.75;5069913;28;20782;-55
2023/09/07 05:40:50;;;;;;;1.10;0.97;;;;;;;21.78;71.51;95714.13;5069453;28;20536;-55
2023/09/07 05:43:18;;;;;;;0.70;0.57;;;;;;;22.00;70.70;95720.00;5069579;28;20964;-54
2023/09/07 05:45:46;;;;;;;0.90;0.90;;;;;;;22.07;72.10;95716.75;5070148;28;20945;-55
2023/09/07 05:48:16;;;;;;;0.80;0.80;;;;;;;21.99;69.65;95720.31;5070644;28;20437;-55
2023/09/07 05:50:46;;;;;;;1.20;0.60;;;;;;;22.06;68.17;95736.78;5044883;28;20515;-55
2023/09/07 05:53:14;;;;;;;0.60;0.53;;;;;;;22.27;69.32;95729.41;5071557;28;20498;-55
2023/09/07 05:55:43;;;;;;;1.10;0.67;;;;;;;22.23;67.78;95725.81;5071221;28;20873;-55
2023/09/07 05:58:14;;;;;;;0.83;0.60;;;;;;;22.34;65.76;95732.34;5070577;28;20438;-54
2023/09/07 06:00:43;;;;;;;0.80;0.80;;;;;;;22.77;65.35;95734.59;5071648;28;20429;-54
2023/09/07 06:03:11;;;;;;;0.60;0.50;;;;;;;22.98;64.99;95731.81;5070718;28;20484;-54
2023/09/07 06:05:40;;;;;;;0.60;0.60;;;;;;;23.09;63.16;95725.63;5071411;28;20524;-54
2023/09/07 06:08:08;;;;;;;0.50;0.30;;;;;;;23.18;61.96;95707.38;5071087;28;20996;-56
2023/09/07 06:10:38;;;;;;;0.70;0.60;;;;;;;23.34;62.54;95718.28;5071191;28;20445;-55
2023/09/07 06:13:06;;;;;;;0.67;0.47;;;;;;;23.31;60.26;95708.13;5071574;28;20452;-55
2023/09/07 06:15:36;;;;;;;0.77;0.53;;;;;;;23.25;62.06;95726.50;5071613;28;20498;-55
2023/09/07 06:18:05;;;;;;;0.93;0.93;;;;;;;23.59;61.38;95717.16;5070494;28;20453;-55
2023/09/07 06:20:35;;;;;;;0.60;0.50;;;;;;;23.50;59.46;95716.50;5071280;28;20452;-55
2023/09/07 06:23:03;;;;;;;1.23;0.53;;;;;;;23.27;58.27;95664.78;5070541;28;20528;-55
2023/09/07 06:25:32;;;;;;;0.80;0.50;;;;;;;23.87;57.87;95712.56;5071251;28;20765;-55
2023/09/07 06:28:00;;;;;;;0.80;0.80;;;;;;;24.02;58.74;95719.94;5070812;28;20485;-56
2023/09/07 06:30:28;;;;;;;0.57;0.57;;;;;;;24.13;57.84;95716.78;5070901;28;20437;-56
2023/09/07 06:32:58;;;;;;;0.70;0.63;;;;;;;24.59;57.78;95721.50;5044148;28;20534;-56
2023/09/07 06:35:27;;;;;;;0.50;0.50;;;;;;;24.55;56.45;95717.91;5070796;28;20445;-56
2023/09/07 06:37:55;;;;;;;0.50;0.37;;;;;;;24.75;54.97;95730.41;5071046;28;20559;-56
2023/09/07 06:40:25;;;;;;;0.70;0.63;;;;;;;25.08;55.72;95714.63;5071175;28;20437;-56
2023/09/07 06:42:56;;;;;;;0.80;0.50;;;;;;;25.32;53.70;95727.19;5070766;28;20445;-56
2023/09/07 06:45:25;;;;;;;3.60;1.07;;;;;;;25.21;52.45;95712.59;5070643;28;20436;-56
2023/09/07 06:47:53;;;;;;;0.70;0.70;;;;;;;25.25;52.51;95724.28;5070688;28;21085;-56
2023/09/07 06:50:23;;;;;;;0.50;0.50;;;;;;;25.54;52.33;95726.56;5064721;28;20980;-56
2023/09/07 06:52:51;;;;;;;0.40;0.30;;;;;;;25.62;51.20;95728.28;5070323;28;20512;-56
2023/09/07 06:55:20;;;;;;;1.47;0.70;;;;;;;24.99;50.97;95695.03;5071012;28;20433;-56
2023/09/07 06:57:49;;;;;;;1.03;0.30;;;;;;;25.24;51.70;95728.16;5070854;28;20930;-56
2023/09/07 07:00:18;;;;;;;0.70;0.40;;;;;;;25.11;52.07;95722.06;5070138;28;21006;-55
2023/09/07 07:02:46;;;;;;;0.57;0.50;;;;;;;24.93;51.58;95730.88;5070818;28;20767;-56
2023/09/07 07:05:15;;;;;;;1.00;0.40;;;;;;;25.14;52.16;95713.22;5070045;28;20456;-56
2023/09/07 07:07:44;;;;;;;0.57;0.57;;;;;;;25.19;52.63;95734.66;5070411;28;20469;-55
2023/09/07 07:10:13;;;;;;;0.60;0.60;;;;;;;25.03;53.02;95704.03;5044875;28;20441;-56
2023/09/07 07:12:41;;;;;;;0.67;0.53;;;;;;;25.34;52.31;95724.13;5070016;28;20451;-56
2023/09/07 07:15:11;;;;;;;2.00;1.80;;;;;;;25.40;50.81;95737.06;5070782;28;20511;-56
2023/09/07 07:17:40;;;;;;;0.60;0.60;;;;;;;25.80;50.79;95742.25;5070142;28;20448;-56
2023/09/07 07:20:09;;;;;;;0.70;0.70;;;;;;;25.72;50.64;95713.38;5070709;28;20445;-56
2023/09/07 07:22:38;;;;;;;0.50;0.50;;;;;;;26.09;50.76;95743.63;5069829;28;20868;-56
2023/09/07 07:25:10;;;;;;;0.40;0.30;;;;;;;25.85;49.77;95721.03;5070289;28;20445;-56
2023/09/07 07:27:38;;;;;;;0.60;0.50;;;;;;;26.20;48.87;95740.00;5069893;28;21075;-55
2023/09/07 07:30:07;;;;;;;0.77;0.60;;;;;;;26.40;50.05;95744.28;5072388;28;20495;-55
2023/09/07 07:32:38;;;;;;;0.50;0.33;;;;;;;26.74;48.95;95736.34;5073516;28;20941;-55
2023/09/07 07:35:07;;;;;;;0.60;0.60;;;;;;;26.37;48.95;95736.84;5074018;28;20531;-55
2023/09/07 07:37:35;;;;;;;2.20;0.97;;;;;;;26.35;49.12;95698.38;5073848;28;20964;-55
2023/09/07 07:40:04;;;;;;;0.50;0.40;;;;;;;26.76;48.19;95747.66;5074097;28;20459;-55
2023/09/07 07:42:34;;;;;;;0.60;0.60;;;;;;;26.77;47.94;95747.31;5073045;28;20438;-55
2023/09/07 07:45:03;;;;;;;0.70;0.60;;;;;;;26.24;46.15;95705.53;5073323;28;20433;-55
2023/09/07 07:47:31;;;;;;;0.47;0.30;;;;;;;26.47;47.33;95751.78;5046414;28;20473;-55
2023/09/07 07:49:59;;;;;;;0.80;0.70;;;;;;;26.03;47.82;95767.59;5072638;28;20538;-55
2023/09/07 07:52:29;;;;;;;0.50;0.40;;;;;;;25.85;49.56;95750.13;5073442;28;20955;-56
2023/09/07 07:54:57;;;;;;;7.10;0.40;;;;;;;26.07;49.16;95762.22;5072407;28;20445;-56
2023/09/07 07:57:28;;;;;;;0.60;0.40;;;;;;;26.07;48.36;95752.13;5073464;28;20441;-56
2023/09/07 07:59:58;;;;;;;0.40;0.30;;;;;;;26.07;50.05;95749.41;5072485;28;20534;-56
2023/09/07 08:02:27;;;;;;;0.67;0.40;;;;;;;25.94;50.02;95745.25;5072534;28;20863;-57
2023/09/07 08:04:56;;;;;;;1.07;0.83;;;;;;;25.82;49.26;95761.69;5072321;28;20441;-57
2023/09/07 08:07:25;;;;;;;0.60;0.60;;;;;;;26.01;48.76;95769.09;5072761;28;20763;-57
2023/09/07 08:09:53;;;;;;;0.50;0.40;;;;;;;25.91;49.14;95770.41;5072940;28;20441;-57
2023/09/07 08:12:22;;;;;;;0.57;0.57;;;;;;;25.87;49.67;95769.56;5062487;28;20469;-57
2023/09/07 08:14:50;;;;;;;1.50;0.83;;;;;;;25.62;49.51;95771.72;5057626;28;20814;-57
2023/09/07 08:17:20;;;;;;;1.03;0.97;;;;;;;25.69;49.65;95768.38;5072904;28;20842;-56
2023/09/07 08:19:51;;;;;;;0.50;0.40;;;;;;;25.42;49.54;95770.06;5072211;28;20445;-56
2023/09/07 08:22:20;;;;;;;1.00;0.70;;;;;;;25.65;50.79;95768.28;5066449;28;20453;-57
2023/09/07 08:24:49;;;;;;;0.50;0.40;;;;;;;25.52;49.97;95758.72;5046225;28;20452;-55
2023/09/07 08:27:18;;;;;;;2.33;0.40;;;;;;;25.79;50.72;95768.63;5072319;28;20518;-54
2023/09/07 08:29:51;;;;;;;0.50;0.30;;;;;;;25.76;49.26;95758.47;5072549;28;20476;-55
2023/09/07 08:32:22;;;;;;;1.10;0.70;;;;;;;25.48;49.97;95773.31;5072405;28;20445;-55
2023/09/07 08:34:56;;;;;;;0.40;0.20;;;;;;;25.53;50.47;95743.19;5072328;28;20441;-55
2023/09/07 08:37:25;;;;;;;0.83;0.70;;;;;;;25.67;50.02;95773.38;5072103;28;20433;-55
2023/09/07 08:39:55;;;;;;;0.40;0.27;;;;;;;25.54;51.09;95759.13;5072134;28;20859;-56
2023/09/07 08:42:24;;;;;;;0.40;0.30;;;;;;;25.84;50.41;95770.25;5072464;28;20437;-57
2023/09/07 08:44:58;;;;;;;0.40;0.30;;;;;;;25.96;49.99;95761.22;5072234;28;20481;-57
2023/09/07 08:47:31;;;;;;;0.40;0.30;;;;;;;26.22;50.45;95748.59;5071989;28;20525;-58
2023/09/07 08:50:01;;;;;;;0.40;0.30;;;;;;;26.44;49.59;95768.78;5071977;28;20460;-57
2023/09/07 08:52:29;;;;;;;0.70;0.70;;;;;;;26.32;50.03;95761.59;5072038;28;20941;-57
2023/09/07 08:55:00;;;;;;;0.77;0.77;;;;;;;26.20;50.12;95758.25;5071950;28;20448;-57
2023/09/07 08:57:31;;;;;;;1.20;1.20;;;;;;;26.07;49.93;95759.50;5072474;28;20557;-57
2023/09/07 09:00:00;;;;;;;1.77;0.50;;;;;;;26.11;49.43;95752.97;5072124;28;20441;-56
2023/09/07 09:02:30;;;;;;;0.63;0.63;;;;;;;26.59;49.87;95753.56;5071814;28;20511;-56
2023/09/07 09:04:59;;;;;;;0.40;0.40;;;;;;;26.64;49.55;95707.03;5071313;28;20478;-55
2023/09/07 09:07:27;;;;;;;0.60;0.60;;;;;;;27.27;48.39;95740.78;5071855;28;20438;-55
2023/09/07 09:10:05;;;;;;;0.53;0.40;;;;;;;27.73;48.53;95741.47;5071737;28;20445;-55
2023/09/07 09:12:33;;;;;;;0.67;0.50;;;;;;;27.48;46.95;95696.75;5071596;28;20457;-55
2023/09/07 09:15:03;;;;;;;0.40;0.30;;;;;;;27.79;46.39;95739.19;5071739;28;20445;-55
2023/09/07 09:17:32;;;;;;;0.40;0.30;;;;;;;27.76;47.69;95727.09;5071462;28;20913;-55
2023/09/07 09:20:01;;;;;;;0.73;0.73;;;;;;;27.54;46.07;95719.81;5071554;28;20835;-56
2023/09/07 09:22:29;;;;;;;0.40;0.37;;;;;;;27.12;47.57;95721.84;5071802;28;20452;-56
2023/09/07 09:24:58;;;;;;;1.00;0.53;;;;;;;27.33;46.64;95719.44;5071419;28;20540;-56
2023/09/07 09:27:26;;;;;;;0.40;0.30;;;;;;;27.84;46.88;95727.97;5071563;28;20441;-55
2023/09/07 09:29:54;;;;;;;0.60;0.60;;;;;;;27.68;47.04;95711.81;5071423;28;20535;-56
2023/09/07 09:32:23;;;;;;;0.50;0.47;;;;;;;27.90;47.58;95721.06;5071520;28;20441;-56
2023/09/07 09:34:53;;;;;;;0.40;0.30;;;;;;;27.19;47.85;95716.53;5071070;28;20495;-55
2023/09/07 09:37:22;;;;;;;1.57;0.50;;;;;;;27.30;49.02;95712.81;5071217;28;21914;-56
2023/09/07 09:39:53;;;;;;;0.40;0.40;;;;;;;27.33;48.03;95722.97;5071677;28;20457;-56
2023/09/07 09:42:23;;;;;;;0.97;0.97;;;;;;;27.51;47.63;95720.53;5071200;28;20814;-55
2023/09/07 09:44:53;;;;;;;0.70;0.70;;;;;;;27.82;48.37;95717.47;5071321;28;20441;-56
2023/09/07 09:47:22;;;;;;;0.40;0.30;;;;;;;28.08;46.98;95709.25;5071083;28;20459;-55
2023/09/07 09:49:53;;;;;;;2.03;1.93;;;;;;;28.32;46.58;95710.69;5071016;28;20916;-55
2023/09/07 09:52:22;;;;;;;0.40;0.30;;;;;;;29.08;45.50;95654.53;5070204;28;20456;-54
2023/09/07 09:54:52;;;;;;;3.33;0.40;;;;;;;29.88;45.95;95678.06;5070925;28;20449;-54
2023/09/07 09:57:21;;;;;;;0.70;0.70;;;;;;;30.38;43.36;95694.69;5070767;28;20754;-54
2023/09/07 09:59:51;;;;;;;0.73;0.47;;;;;;;29.91;42.06;95679.25;5071187;28;20946;-54
2023/09/07 10:02:20;;;;;;;0.60;0.50;;;;;;;29.02;43.24;95686.06;5071104;28;20456;-54
2023/09/07 10:04:51;;;;;;;1.37;0.50;;;;;;;29.26;44.91;95690.16;5070815;28;20498;-55
2023/09/07 10:07:30;;;;;;;0.50;0.33;;;;;;;29.11;44.21;95686.53;5071133;28;20449;-54
2023/09/07 10:09:59;;;;;;;1.17;0.53;;;;;;;28.55;43.52;95688.72;5070487;28;20499;-54
2023/09/07 10:12:28;;;;;;;3.30;0.50;;;;;;;28.81;45.33;95683.16;5070469;28;20524;-54
2023/09/07 10:14:57;;;;;;;0.93;0.50;;;;;;;28.44;45.81;95685.13;5070498;28;20964;-54
2023/09/07 10:17:25;;;;;;;0.43;0.30;;;;;;;28.78;44.97;95681.97;5071104;28;20437;-55
2023/09/07 10:20:05;;;;;;;0.70;0.70;;;;;;;29.26;44.20;95671.06;5070739;28;20444;-54
2023/09/07 10:22:35;;;;;;;0.43;0.40;;;;;;;29.61;44.41;95676.72;5070516;28;20441;-55
2023/09/07 10:25:19;;;;;;;10.47;0.50;;;;;;;29.70;43.42;95673.66;5070784;28;20433;-55
2023/09/07 10:27:48;;;;;;;0.40;0.30;;;;;;;29.31;44.29;95679.69;5070228;28;20445;-55
2023/09/07 10:30:19;;;;;;;0.40;0.40;;;;;;;28.81;45.31;95675.78;5070682;28;20571;-55
2023/09/07 10:32:47;;;;;;;0.50;0.40;;;;;;;28.99;45.69;95677.84;5070629;28;20464;-53
2023/09/07 10:35:17;;;;;;;7.30;0.40;;;;;;;28.74;45.62;95672.97;5069989;28;20494;-53
2023/09/07 10:37:49;;;;;;;0.50;0.40;;;;;;;28.10;46.33;95654.38;5070591;28;20832;-53
2023/09/07 10:40:21;;;;;;;0.70;0.70;;;;;;;27.84;47.13;95670.78;5057340;28;20524;-53
2023/09/07 10:42:50;;;;;;;0.40;0.40;;;;;;;27.95;48.25;95682.59;5070460;28;20473;-54
2023/09/07 10:45:18;;;;;;;0.50;0.50;;;;;;;27.95;47.79;95649.91;5069376;28;20495;-53
2023/09/07 10:47:47;;;;;;;0.80;0.80;;;;;;;28.09;48.64;95685.50;5070446;28;20527;-53
2023/09/07 10:50:15;;;;;;;0.50;0.40;;;;;;;28.09;48.07;95671.88;5070237;28;20538;-54
2023/09/07 10:52:44;;;;;;;0.97;0.97;;;;;;;27.78;47.50;95683.94;5070102;28;20433;-54
2023/09/07 10:55:14;;;;;;;0.40;0.40;;;;;;;28.14;48.55;95677.78;5070410;28;20495;-54
2023/09/07 10:57:44;;;;;;;0.40;0.27;;;;;;;28.15;48.98;95678.59;5070656;28;20455;-55
2023/09/07 11:00:17;;;;;;;0.70;0.70;;;;;;;27.90;49.34;95680.19;5070286;28;20441;-56
2023/09/07 11:02:45;;;;;;;0.50;0.50;;;;;;;27.50;50.02;95664.53;5071072;28;20445;-56
2023/09/07 11:05:14;;;;;;;10.90;0.73;;;;;;;27.49;50.07;95696.41;5074155;28;20528;-56
2023/09/07 11:07:43;;;;;;;0.40;0.30;;;;;;;27.29;50.21;95686.75;5074157;28;21022;-57
2023/09/07 11:10:12;;;;;;;1.77;0.93;;;;;;;26.76;50.49;95701.41;5074130;28;21046;-59
2023/09/07 11:12:42;;;;;;;1.07;0.60;;;;;;;26.10;51.37;95691.66;5074088;28;20468;-58
2023/09/07 11:15:11;;;;;;;0.60;0.47;;;;;;;25.96;52.67;95690.59;5074384;28;20448;-59
2023/09/07 11:17:40;;;;;;;0.97;0.90;;;;;;;26.00;52.60;95694.16;5073510;28;20449;-57
2023/09/07 11:20:10;;;;;;;0.40;0.40;;;;;;;25.87;53.90;95693.50;5073959;28;20443;-57
2023/09/07 11:22:39;;;;;;;1.23;1.00;;;;;;;25.55;53.31;95687.41;5073733;28;21014;-55
2023/09/07 11:25:26;;;;;;;0.77;0.70;;;;;;;25.83;53.60;95687.22;5073490;28;20977;-55
2023/09/07 11:27:58;;;;;;;0.57;0.50;;;;;;;25.91;53.88;95686.22;5073364;28;20879;-56
2023/09/07 11:30:29;;;;;;;0.73;0.73;;;;;;;26.16;53.48;95684.78;5073157;28;20986;-55
2023/09/07 11:33:08;;;;;;;0.60;0.60;;;;;;;26.15;53.84;95679.72;5072907;28;20441;-56
2023/09/07 11:35:37;;;;;;;0.60;0.60;;;;;;;25.70;53.33;95677.66;5073023;28;20941;-56
2023/09/07 11:38:08;;;;;;;0.90;0.83;;;;;;;25.67;54.27;95670.22;5072863;28;20536;-57
2023/09/07 11:40:37;;;;;;;0.70;0.70;;;;;;;25.80;55.04;95674.38;5073115;28;20456;-57
2023/09/07 11:43:06;;;;;;;0.70;0.40;;;;;;;25.75;54.63;95677.38;5073416;28;20440;-57